메인 페이지
METAR-TAF:

METAR-TAF

공항 :

케르만, 이란

위도: 30-15N, 경도: 056-58E, 고도: 1748m

현재 날씨관측

예보는 53분 전, 00:00시(UTC)에 발표되었습니다.
동남동4kt
온도 7°C
습도 57%
기압 1022 hPa
시정 10km 이상
1500m 미만 상공 구름 및 적란운 없음

METAR: OIKK 150000Z 12004KT CAVOK 07/M01 Q1021 A3017

시각: 04:23 (00:53 UTC)

예보

예보는 1 시간 13분 전, 23:40시(UTC)에 발표되었습니다.
예보 대상 시간: 15일 00시부터 16일 06시까지 (UTC)
동남동8kt
시정: 7000m
고도 3000ft 상공 구름 조금
고도 10000ft 상공 구름 보통
일시적
15일 09시부터 15일 15시까지 (UTC)
서남서16kt
시정: 6000m
고도 4000ft 상공 구름 보통
고도 10000ft 상공 구름 많음

TAF: OIKK 142340Z 1500/1606 11004MPS 7000 FEW030 SCT100 TEMPO 1509/1515 24008MPS 6000 SCT040 BKN100

4,000개 이상의 공항 관측 자료 및 예보 (METAR 및 TAF 보고).

지도상에서 검색 가능한 기상관측소가 노란 점과 빨간 점으로 표시되어 있습니다.

기상관측소 명을 보려면 표시 위로 마우스를 이동하세요.

날씨 관측과 예보를 보려면 클릭하세요.

지도 변경 : 확대하려면 엑스 표시가 있는 녹색 버튼, 축소하려면 빼기 표시가 있는 녹색 버튼, 다음 페이지의 지도를 보려면 녹색 화살표를 클릭하세요.


METAR-TAF: